Time;durP1;ratioP1;P1;durP2;ratioP2;P2;SDS_P1;SDS_P2;PMS_P1;PMS_P2;Temp;Humidity;BMP_temperature;BMP_pressure;BME280_temperature;BME280_humidity;BME280_pressure;Samples;Min_cycle;Max_cycle;Signal;HPM_P1;HPM_P2
2024/03/27 00:03:30;;;;;;;;;;;11.90;99.90;;;;;;8359615;28;20360;-75
2024/03/27 00:07:32;;;;;;;;;;;11.90;99.90;;;;;;8359495;28;19925;-75
2024/03/27 00:11:33;;;;;;;;;;;11.90;99.90;;;;;;8357187;28;19920;-75
2024/03/27 00:15:34;;;;;;;;;;;11.90;99.90;;;;;;8350183;28;19927;-75
2024/03/27 00:19:35;;;;;;;;;;;11.80;99.90;;;;;;8375251;28;20003;-75
2024/03/27 00:23:35;;;;;;;;;;;11.80;99.90;;;;;;8364231;28;19928;-75
2024/03/27 00:27:36;;;;;;;;;;;11.80;99.90;;;;;;8370997;28;19921;-75
2024/03/27 00:31:37;;;;;;;;;;;11.80;99.90;;;;;;8346839;28;19929;-75
2024/03/27 00:35:38;;;;;;;;;;;11.80;99.90;;;;;;8370021;28;19929;-75
2024/03/27 00:39:39;;;;;;;;;;;11.80;99.90;;;;;;8344550;28;19932;-75
2024/03/27 00:43:40;;;;;;;;;;;11.80;99.90;;;;;;8355344;28;20391;-75
2024/03/27 00:47:40;;;;;;;;;;;11.80;99.90;;;;;;8398046;28;19924;-75
2024/03/27 00:51:41;;;;;;;;;;;11.70;99.90;;;;;;8364905;28;19928;-75
2024/03/27 00:55:42;;;;;;;;;;;11.70;99.90;;;;;;8378569;28;19920;-75
2024/03/27 00:59:43;;;;;;;;;;;11.70;99.90;;;;;;8365545;28;20020;-75
2024/03/27 01:03:43;;;;;;;;;;;11.80;99.90;;;;;;8367465;28;19927;-75
2024/03/27 01:07:45;;;;;;;;;;;11.70;99.90;;;;;;8393179;28;19921;-75
2024/03/27 01:11:45;;;;;;;;;;;11.70;99.90;;;;;;8348981;28;19939;-75
2024/03/27 01:15:50;;;;;;;;;;;11.70;99.90;;;;;;8367241;28;20276;-75
2024/03/27 01:19:51;;;;;;;;;;;11.60;99.90;;;;;;8364138;28;20366;-75
2024/03/27 01:23:51;;;;;;;;;;;11.60;99.90;;;;;;8373928;28;20362;-75
2024/03/27 01:27:52;;;;;;;;;;;11.50;99.90;;;;;;8383257;28;20354;-75
2024/03/27 01:31:53;;;;;;;;;;;11.40;99.90;;;;;;8377046;28;20330;-75
2024/03/27 01:35:54;;;;;;;;;;;11.30;99.90;;;;;;8393845;28;19924;-75
2024/03/27 01:39:55;;;;;;;;;;;11.30;99.90;;;;;;8352797;28;20328;-75
2024/03/27 01:43:56;;;;;;;;;;;11.30;99.90;;;;;;8347328;28;19927;-75
2024/03/27 01:47:57;;;;;;;;;;;11.20;99.90;;;;;;8366914;28;19920;-75
2024/03/27 01:51:58;;;;;;;;;;;11.30;99.90;;;;;;8366482;28;19982;-75
2024/03/27 01:55:59;;;;;;;;;;;11.30;99.90;;;;;;8361116;28;19938;-75
2024/03/27 02:00:00;;;;;;;;;;;11.30;99.90;;;;;;8345691;28;19925;-75
2024/03/27 02:04:14;;;;;;;;;;;11.20;99.90;;;;;;8364532;28;19927;-75
2024/03/27 02:08:15;;;;;;;;;;;11.20;99.90;;;;;;8366047;28;19928;-75
2024/03/27 02:12:15;;;;;;;;;;;11.10;99.90;;;;;;8366352;28;19921;-75
2024/03/27 02:16:16;;;;;;;;;;;11.10;99.90;;;;;;8365059;28;19920;-75
2024/03/27 02:20:17;;;;;;;;;;;11.00;99.90;;;;;;8395388;28;19928;-75
2024/03/27 02:24:21;;;;;;;;;;;11.00;99.90;;;;;;8365451;28;24470;-75
2024/03/27 02:28:22;;;;;;;;;;;11.00;99.90;;;;;;8364513;28;19920;-75
2024/03/27 02:37:04;;;;;;;;;;;10.80;99.90;;;;;;8360032;28;19934;-75
2024/03/27 02:41:05;;;;;;;;;;;10.80;99.90;;;;;;8361223;28;19924;-75
2024/03/27 02:45:08;;;;;;;;;;;10.80;99.90;;;;;;8374992;28;19964;-75
2024/03/27 02:49:09;;;;;;;;;;;10.70;99.90;;;;;;8365277;28;19929;-75
2024/03/27 02:53:09;;;;;;;;;;;10.70;99.90;;;;;;8365370;28;19955;-75
2024/03/27 02:57:11;;;;;;;;;;;10.60;99.90;;;;;;8355268;28;20011;-75
2024/03/27 03:01:13;;;;;;;;;;;10.50;99.90;;;;;;8358112;28;19920;-75
2024/03/27 03:05:13;;;;;;;;;;;10.50;99.90;;;;;;8356635;28;20371;-75
2024/03/27 03:09:14;;;;;;;;;;;10.40;99.90;;;;;;8339475;28;19921;-75
2024/03/27 03:13:15;;;;;;;;;;;10.40;99.90;;;;;;8373629;28;19931;-75
2024/03/27 03:17:16;;;;;;;;;;;10.40;99.90;;;;;;8357952;28;19920;-75
2024/03/27 03:21:17;;;;;;;;;;;10.40;99.90;;;;;;8354827;28;20340;-75
2024/03/27 03:25:18;;;;;;;;;;;10.30;99.90;;;;;;8360357;28;20336;-75
2024/03/27 03:29:19;;;;;;;;;;;10.30;99.90;;;;;;8362379;28;20376;-75
2024/03/27 03:33:19;;;;;;;;;;;10.30;99.90;;;;;;8365207;28;24675;-75
2024/03/27 03:37:20;;;;;;;;;;;10.30;99.90;;;;;;8359349;28;20384;-75
2024/03/27 03:41:21;;;;;;;;;;;10.20;99.90;;;;;;8361062;28;20426;-75
2024/03/27 03:45:23;;;;;;;;;;;10.20;99.90;;;;;;8369704;28;20394;-75
2024/03/27 03:49:23;;;;;;;;;;;10.20;99.90;;;;;;8359195;28;20204;-75
2024/03/27 03:53:24;;;;;;;;;;;10.20;99.90;;;;;;8363539;28;20119;-75
2024/03/27 03:57:25;;;;;;;;;;;10.20;99.90;;;;;;8391234;28;19921;-75
2024/03/27 04:06:35;;;;;;;;;;;10.20;99.90;;;;;;8398895;28;19919;-75
2024/03/27 04:11:10;;;;;;;;;;;10.20;99.90;;;;;;8388617;28;20351;-75
2024/03/27 04:15:11;;;;;;;;;;;10.20;99.90;;;;;;8383618;28;19920;-75
2024/03/27 04:19:12;;;;;;;;;;;10.20;99.90;;;;;;8380224;28;19924;-75
2024/03/27 04:23:13;;;;;;;;;;;10.20;99.90;;;;;;8375145;28;19924;-75
2024/03/27 04:27:14;;;;;;;;;;;10.30;99.90;;;;;;8369713;28;20356;-75
2024/03/27 04:31:15;;;;;;;;;;;10.20;99.90;;;;;;8366381;28;19924;-75
2024/03/27 04:35:15;;;;;;;;;;;10.30;99.90;;;;;;8367414;28;19936;-75
2024/03/27 04:39:16;;;;;;;;;;;10.30;99.90;;;;;;8373671;28;20376;-74
2024/03/27 04:43:17;;;;;;;;;;;10.30;99.90;;;;;;8380166;28;19930;-75
2024/03/27 04:47:18;;;;;;;;;;;10.30;99.90;;;;;;8371085;28;19924;-75
2024/03/27 04:51:19;;;;;;;;;;;10.40;99.90;;;;;;8371351;28;20367;-75
2024/03/27 04:55:20;;;;;;;;;;;10.40;99.90;;;;;;8374680;28;19924;-75
2024/03/27 04:59:22;;;;;;;;;;;10.40;99.90;;;;;;8376133;28;20015;-75
2024/03/27 05:03:23;;;;;;;;;;;10.40;99.90;;;;;;8395568;28;19926;-74
2024/03/27 05:07:24;;;;;;;;;;;10.50;99.90;;;;;;8411575;28;19920;-74
2024/03/27 05:11:26;;;;;;;;;;;10.50;99.90;;;;;;8408148;28;20379;-75
2024/03/27 05:15:27;;;;;;;;;;;10.50;99.90;;;;;;8409942;28;20369;-75
2024/03/27 05:19:28;;;;;;;;;;;10.50;99.90;;;;;;8404477;28;19942;-75
2024/03/27 05:23:29;;;;;;;;;;;10.50;99.90;;;;;;8409156;28;19935;-75
2024/03/27 05:27:29;;;;;;;;;;;10.50;99.90;;;;;;8411560;28;19928;-74
2024/03/27 05:31:30;;;;;;;;;;;10.50;99.90;;;;;;8394036;28;19924;-75
2024/03/27 05:35:31;;;;;;;;;;;10.30;99.90;;;;;;8412442;28;19927;-75
2024/03/27 05:39:33;;;;;;;;;;;10.10;99.90;;;;;;8407146;28;19926;-75
2024/03/27 05:43:33;;;;;;;;;;;10.00;99.90;;;;;;8401220;28;19920;-75
2024/03/27 05:47:34;;;;;;;;;;;9.90;99.90;;;;;;8390490;28;19985;-75
2024/03/27 05:51:36;;;;;;;;;;;9.80;99.90;;;;;;8386009;28;20283;-74
2024/03/27 05:55:38;;;;;;;;;;;9.70;99.90;;;;;;8407585;28;19927;-75
2024/03/27 05:59:39;;;;;;;;;;;9.70;99.90;;;;;;8389253;28;19973;-75
2024/03/27 06:03:40;;;;;;;;;;;9.60;99.90;;;;;;8409977;28;19948;-75
2024/03/27 06:07:40;;;;;;;;;;;9.60;99.90;;;;;;8406512;28;20006;-75
2024/03/27 06:11:41;;;;;;;;;;;9.60;99.90;;;;;;8392431;28;20036;-75
2024/03/27 06:15:42;;;;;;;;;;;9.60;99.90;;;;;;8387475;28;19926;-75
2024/03/27 06:19:42;;;;;;;;;;;9.60;99.90;;;;;;8385141;28;19927;-74
2024/03/27 06:23:44;;;;;;;;;;;9.60;99.90;;;;;;8402044;28;19927;-75
2024/03/27 06:27:45;;;;;;;;;;;9.60;99.90;;;;;;8402723;28;19924;-74
2024/03/27 06:31:46;;;;;;;;;;;9.60;99.90;;;;;;8403889;28;19920;-75
2024/03/27 06:35:46;;;;;;;;;;;9.50;99.90;;;;;;8403950;28;20745;-74
2024/03/27 06:39:47;;;;;;;;;;;9.50;99.90;;;;;;8406568;28;20305;-75
2024/03/27 06:43:50;;;;;;;;;;;9.40;99.90;;;;;;8387546;28;19920;-74
2024/03/27 06:47:51;;;;;;;;;;;9.40;99.90;;;;;;8390579;28;19920;-75
2024/03/27 06:51:59;;;;;;;;;;;9.30;99.90;;;;;;8389938;28;19928;-74
2024/03/27 06:56:06;;;;;;;;;;;9.30;99.90;;;;;;8394235;28;20337;-74
2024/03/27 07:00:09;;;;;;;;;;;9.30;99.90;;;;;;8376412;28;20056;-74
2024/03/27 07:04:12;;;;;;;;;;;9.30;99.90;;;;;;8421454;28;19951;-74
2024/03/27 07:08:12;;;;;;;;;;;9.30;99.90;;;;;;8406704;28;20410;-74
2024/03/27 07:12:13;;;;;;;;;;;9.30;99.90;;;;;;8403651;28;20378;-74
2024/03/27 07:16:29;;;;;;;;;;;9.30;99.90;;;;;;8388544;28;19978;-74
2024/03/27 07:20:30;;;;;;;;;;;9.30;99.90;;;;;;8406223;28;19953;-74
2024/03/27 07:24:31;;;;;;;;;;;9.40;99.90;;;;;;8403780;28;19954;-74
2024/03/27 07:28:32;;;;;;;;;;;9.40;99.90;;;;;;8407831;28;19935;-74
2024/03/27 07:32:33;;;;;;;;;;;9.40;99.90;;;;;;8404053;28;19924;-75
2024/03/27 07:36:34;;;;;;;;;;;9.40;99.90;;;;;;8404650;28;19927;-74
2024/03/27 07:40:35;;;;;;;;;;;9.40;99.90;;;;;;8402353;28;19924;-75
2024/03/27 07:44:36;;;;;;;;;;;9.30;99.90;;;;;;8398546;28;19928;-74
2024/03/27 07:48:37;;;;;;;;;;;9.30;99.90;;;;;;8404917;28;19920;-75
2024/03/27 07:52:38;;;;;;;;;;;9.30;99.90;;;;;;8402533;28;20010;-74
2024/03/27 07:56:42;;;;;;;;;;;9.30;99.90;;;;;;8404511;28;19974;-74
2024/03/27 08:00:43;;;;;;;;;;;9.40;99.90;;;;;;8405493;28;19920;-75
2024/03/27 08:04:43;;;;;;;;;;;9.40;99.90;;;;;;8387179;28;19920;-74
2024/03/27 08:08:45;;;;;;;;;;;9.40;99.90;;;;;;8399848;28;19949;-75
2024/03/27 08:12:46;;;;;;;;;;;9.40;99.90;;;;;;8401050;28;20014;-75
2024/03/27 08:16:50;;;;;;;;;;;9.40;99.90;;;;;;8388871;28;20367;-74
2024/03/27 08:21:22;;;;;;;;;;;9.40;99.90;;;;;;8403560;28;19928;-75
2024/03/27 08:30:26;;;;;;;;;;;9.60;99.90;;;;;;8420830;28;20021;-74
2024/03/27 08:34:27;;;;;;;;;;;9.80;99.90;;;;;;8388518;28;19998;-74
2024/03/27 08:38:28;;;;;;;;;;;10.00;99.90;;;;;;8405275;28;20017;-75
2024/03/27 08:42:29;;;;;;;;;;;10.00;99.90;;;;;;8402293;28;20018;-74
2024/03/27 08:46:30;;;;;;;;;;;10.20;99.90;;;;;;8393028;28;19963;-75
2024/03/27 08:50:31;;;;;;;;;;;10.30;99.90;;;;;;8409851;28;19930;-75
2024/03/27 08:54:31;;;;;;;;;;;10.30;99.90;;;;;;8409528;28;19920;-74
2024/03/27 08:58:51;;;;;;;;;;;10.20;99.90;;;;;;8412105;28;19927;-74
2024/03/27 09:02:52;;;;;;;;;;;10.10;99.90;;;;;;8408091;28;20018;-74
2024/03/27 09:06:53;;;;;;;;;;;10.00;99.90;;;;;;8406630;28;19931;-74
2024/03/27 09:10:54;;;;;;;;;;;9.90;99.90;;;;;;8409937;28;19995;-74
2024/03/27 09:14:55;;;;;;;;;;;9.90;99.90;;;;;;8408643;28;20371;-74
2024/03/27 09:18:56;;;;;;;;;;;9.90;99.90;;;;;;8410000;28;20279;-75
2024/03/27 09:22:57;;;;;;;;;;;9.90;99.90;;;;;;8392456;28;19920;-75
2024/03/27 09:32:00;;;;;;;;;;;9.80;99.90;;;;;;8428223;28;19964;-74
2024/03/27 09:36:02;;;;;;;;;;;9.60;99.90;;;;;;8404466;28;19920;-74
2024/03/27 09:40:03;;;;;;;;;;;9.50;99.90;;;;;;8408530;28;19920;-74
2024/03/27 09:44:06;;;;;;;;;;;9.40;99.90;;;;;;8403814;28;19924;-74
2024/03/27 09:48:07;;;;;;;;;;;9.30;99.90;;;;;;8406725;28;19928;-74
2024/03/27 09:52:09;;;;;;;;;;;9.10;99.90;;;;;;8408294;28;20458;-74
2024/03/27 09:56:10;;;;;;;;;;;9.10;99.90;;;;;;8406400;28;19924;-74
2024/03/27 10:00:11;;;;;;;;;;;9.10;99.90;;;;;;8389030;28;19924;-74
2024/03/27 10:04:12;;;;;;;;;;;9.20;99.90;;;;;;8393027;28;19958;-74
2024/03/27 10:08:14;;;;;;;;;;;9.40;99.90;;;;;;8405396;28;19952;-75
2024/03/27 10:12:15;;;;;;;;;;;9.50;99.90;;;;;;8394992;28;20038;-74
2024/03/27 10:16:17;;;;;;;;;;;9.60;99.90;;;;;;8394023;28;19959;-74
2024/03/27 10:20:18;;;;;;;;;;;9.80;99.90;;;;;;8399215;28;20283;-74
2024/03/27 10:24:18;;;;;;;;;;;9.90;99.90;;;;;;8409179;28;20279;-74
2024/03/27 10:28:19;;;;;;;;;;;10.10;99.90;;;;;;8414485;28;19931;-74
2024/03/27 10:32:23;;;;;;;;;;;10.20;99.90;;;;;;8410450;28;20279;-74
2024/03/27 10:36:25;;;;;;;;;;;10.30;99.90;;;;;;8395180;28;20393;-73
2024/03/27 10:40:26;;;;;;;;;;;10.40;99.90;;;;;;8408627;28;19919;-74
2024/03/27 10:44:27;;;;;;;;;;;10.50;99.90;;;;;;8387312;28;19926;-74
2024/03/27 10:48:28;;;;;;;;;;;10.60;99.90;;;;;;8404773;28;20290;-74
2024/03/27 10:52:31;;;;;;;;;;;10.70;99.90;;;;;;8407554;28;19931;-74
2024/03/27 10:56:32;;;;;;;;;;;10.80;99.90;;;;;;8405592;28;19926;-74
2024/03/27 11:00:33;;;;;;;;;;;10.90;99.90;;;;;;8401045;28;20313;-74
2024/03/27 11:04:36;;;;;;;;;;;11.00;99.90;;;;;;8405607;28;20013;-74
2024/03/27 11:08:37;;;;;;;;;;;11.20;99.90;;;;;;8388861;28;20007;-74
2024/03/27 11:12:38;;;;;;;;;;;11.50;99.90;;;;;;8405293;28;19927;-74
2024/03/27 11:16:49;;;;;;;;;;;11.50;99.90;;;;;;8391707;28;20019;-74
2024/03/27 11:20:50;;;;;;;;;;;11.40;99.90;;;;;;8404615;28;20026;-74
2024/03/27 11:24:51;;;;;;;;;;;11.50;99.90;;;;;;8402059;28;20466;-74
2024/03/27 11:28:52;;;;;;;;;;;11.60;99.90;;;;;;8387710;28;20279;-74
2024/03/27 11:32:54;;;;;;;;;;;11.60;99.90;;;;;;8406318;28;19919;-74
2024/03/27 11:36:56;;;;;;;;;;;11.60;99.90;;;;;;8390726;28;19926;-74
2024/03/27 11:40:57;;;;;;;;;;;11.50;99.90;;;;;;8389989;28;20019;-74
2024/03/27 11:44:58;;;;;;;;;;;11.60;99.90;;;;;;8397660;28;19923;-74
2024/03/27 11:48:59;;;;;;;;;;;11.60;99.90;;;;;;8402924;28;20016;-74
2024/03/27 11:52:59;;;;;;;;;;;11.60;99.90;;;;;;8399909;28;20022;-74
2024/03/27 11:57:00;;;;;;;;;;;11.70;99.90;;;;;;8402738;28;19924;-74
2024/03/27 12:01:01;;;;;;;;;;;11.70;99.90;;;;;;8409142;28;20298;-74
2024/03/27 12:05:04;;;;;;;;;;;11.80;99.90;;;;;;8400902;28;19920;-74
2024/03/27 12:09:04;;;;;;;;;;;12.00;99.90;;;;;;8395077;28;20286;-74
2024/03/27 12:13:05;;;;;;;;;;;12.20;99.90;;;;;;8389968;28;19964;-74
2024/03/27 12:17:15;;;;;;;;;;;12.40;99.90;;;;;;8406081;28;19927;-74
2024/03/27 12:21:16;;;;;;;;;;;12.60;99.90;;;;;;8390517;28;20438;-74
2024/03/27 12:25:16;;;;;;;;;;;12.60;99.90;;;;;;8388267;28;20309;-74
2024/03/27 12:29:18;;;;;;;;;;;12.70;99.90;;;;;;8391175;28;19927;-74
2024/03/27 12:33:19;;;;;;;;;;;12.80;99.90;;;;;;8407706;28;20022;-74
2024/03/27 12:37:20;;;;;;;;;;;13.00;99.90;;;;;;8404384;28;19920;-75
2024/03/27 12:41:21;;;;;;;;;;;13.20;99.90;;;;;;8400841;28;19924;-74
2024/03/27 12:45:22;;;;;;;;;;;13.40;99.90;;;;;;8384656;28;20007;-74
2024/03/27 12:49:22;;;;;;;;;;;13.70;99.90;;;;;;8402905;28;19924;-74
2024/03/27 12:53:23;;;;;;;;;;;13.90;99.90;;;;;;8403820;28;20337;-75
2024/03/27 12:57:24;;;;;;;;;;;14.10;99.90;;;;;;8383342;28;19920;-74
2024/03/27 13:01:25;;;;;;;;;;;14.20;99.90;;;;;;8409278;28;20318;-74
2024/03/27 13:05:26;;;;;;;;;;;14.20;99.90;;;;;;8404359;28;19999;-74
2024/03/27 13:09:27;;;;;;;;;;;14.30;99.90;;;;;;8388691;28;19920;-74
2024/03/27 13:13:27;;;;;;;;;;;14.60;99.90;;;;;;8406910;28;20291;-74
2024/03/27 13:17:28;;;;;;;;;;;14.70;99.90;;;;;;8405475;28;20343;-74
2024/03/27 13:21:30;;;;;;;;;;;14.70;99.90;;;;;;8387578;28;19924;-74
2024/03/27 13:25:30;;;;;;;;;;;14.50;99.90;;;;;;8402674;28;19999;-74
2024/03/27 13:29:31;;;;;;;;;;;14.70;99.90;;;;;;8404396;28;19924;-75
2024/03/27 13:33:32;;;;;;;;;;;15.10;99.90;;;;;;8409473;28;19973;-74
2024/03/27 13:37:33;;;;;;;;;;;15.30;99.90;;;;;;8405404;28;20418;-74
2024/03/27 13:41:35;;;;;;;;;;;15.40;99.90;;;;;;8402082;28;20342;-74
2024/03/27 13:45:35;;;;;;;;;;;15.20;99.90;;;;;;8408855;28;20002;-74
2024/03/27 13:49:36;;;;;;;;;;;14.80;99.90;;;;;;8407981;28;20021;-74
2024/03/27 13:53:37;;;;;;;;;;;14.50;99.90;;;;;;8412589;28;19959;-74
2024/03/27 13:57:38;;;;;;;;;;;14.20;99.90;;;;;;8410193;28;19924;-74
2024/03/27 14:01:39;;;;;;;;;;;13.80;99.90;;;;;;8409784;28;20007;-74
2024/03/27 14:05:40;;;;;;;;;;;13.60;99.90;;;;;;8392623;28;19931;-74
2024/03/27 14:09:41;;;;;;;;;;;13.40;99.90;;;;;;8403800;28;19963;-74
2024/03/27 14:13:41;;;;;;;;;;;13.30;99.90;;;;;;8406989;28;19928;-74
2024/03/27 14:17:42;;;;;;;;;;;13.10;99.90;;;;;;8390469;28;20037;-74
2024/03/27 14:21:43;;;;;;;;;;;13.00;99.90;;;;;;8404993;28;20393;-74
2024/03/27 14:25:44;;;;;;;;;;;12.90;99.90;;;;;;8410209;28;19920;-74
2024/03/27 14:29:45;;;;;;;;;;;12.80;99.90;;;;;;8404991;28;19920;-74
2024/03/27 14:33:45;;;;;;;;;;;12.70;99.90;;;;;;8408505;28;20405;-74
2024/03/27 14:37:46;;;;;;;;;;;12.80;99.90;;;;;;8407243;28;20356;-74
2024/03/27 14:41:48;;;;;;;;;;;12.70;99.90;;;;;;8401480;28;19920;-74
2024/03/27 14:45:49;;;;;;;;;;;12.70;99.90;;;;;;8402674;28;20320;-74
2024/03/27 14:49:50;;;;;;;;;;;12.60;99.90;;;;;;8406187;28;19920;-74
2024/03/27 14:53:51;;;;;;;;;;;12.50;99.90;;;;;;8407209;28;19923;-74
2024/03/27 14:57:52;;;;;;;;;;;12.40;99.90;;;;;;8404684;28;19970;-74
2024/03/27 15:01:55;;;;;;;;;;;12.50;99.90;;;;;;8406781;28;19995;-74
2024/03/27 15:05:56;;;;;;;;;;;12.50;99.90;;;;;;8405741;28;20051;-75
2024/03/27 15:09:57;;;;;;;;;;;12.50;99.90;;;;;;8395396;28;19928;-74
2024/03/27 15:13:58;;;;;;;;;;;12.50;99.90;;;;;;8400863;28;20383;-74
2024/03/27 15:17:59;;;;;;;;;;;12.50;99.90;;;;;;8398683;28;19920;-74
2024/03/27 15:22:00;;;;;;;;;;;12.60;99.90;;;;;;8401250;28;19920;-74
2024/03/27 15:26:01;;;;;;;;;;;12.70;99.90;;;;;;8395619;28;20035;-75
2024/03/27 15:30:02;;;;;;;;;;;12.70;99.90;;;;;;8374301;28;19930;-74
2024/03/27 15:34:25;;;;;;;;;;;12.80;99.90;;;;;;8392911;28;20427;-75
2024/03/27 15:38:26;;;;;;;;;;;12.80;99.90;;;;;;8409714;28;20385;-74
2024/03/27 15:47:30;;;;;;;;;;;12.80;99.90;;;;;;8415320;28;20038;-74
2024/03/27 15:51:31;;;;;;;;;;;12.80;99.90;;;;;;8401013;28;20010;-74
2024/03/27 15:55:31;;;;;;;;;;;12.70;99.90;;;;;;8387808;28;19923;-74
2024/03/27 15:59:32;;;;;;;;;;;12.60;99.90;;;;;;8384907;28;19924;-74
2024/03/27 16:03:33;;;;;;;;;;;12.60;99.90;;;;;;8385417;28;19924;-74
2024/03/27 16:07:34;;;;;;;;;;;12.60;99.90;;;;;;8371783;28;20314;-74
2024/03/27 16:11:34;;;;;;;;;;;12.60;99.90;;;;;;8388283;28;20023;-74
2024/03/27 16:15:35;;;;;;;;;;;12.60;99.90;;;;;;8385860;28;19928;-74
2024/03/27 16:19:37;;;;;;;;;;;12.70;99.90;;;;;;8395709;28;19927;-74
2024/03/27 16:23:37;;;;;;;;;;;12.80;99.90;;;;;;8393686;28;19934;-74
2024/03/27 16:27:39;;;;;;;;;;;13.00;99.90;;;;;;8399073;28;19967;-74
2024/03/27 16:31:40;;;;;;;;;;;13.30;99.90;;;;;;8404778;28;20056;-74
2024/03/27 16:35:41;;;;;;;;;;;13.30;99.90;;;;;;8401686;28;19927;-74
2024/03/27 16:39:43;;;;;;;;;;;13.30;99.90;;;;;;8401608;28;20291;-74
2024/03/27 16:43:43;;;;;;;;;;;13.30;99.90;;;;;;8377338;28;19928;-75
2024/03/27 16:48:04;;;;;;;;;;;13.30;99.90;;;;;;8375419;28;19970;-74
2024/03/27 16:57:02;;;;;;;;;;;13.60;99.90;;;;;;8396451;28;19943;-75
2024/03/27 17:01:03;;;;;;;;;;;13.80;99.90;;;;;;8378159;28;19923;-74
2024/03/27 17:10:14;;;;;;;;;;;13.70;99.90;;;;;;8404286;28;20370;-74
2024/03/27 17:14:15;;;;;;;;;;;13.60;99.90;;;;;;8408704;28;20336;-74
2024/03/27 17:18:16;;;;;;;;;;;13.60;99.90;;;;;;8384883;28;20372;-74
2024/03/27 17:22:16;;;;;;;;;;;13.60;99.90;;;;;;8382977;28;19920;-74
2024/03/27 17:26:17;;;;;;;;;;;13.40;99.90;;;;;;8411419;28;19924;-75
2024/03/27 17:30:18;;;;;;;;;;;13.20;99.90;;;;;;8362021;28;20330;-74
2024/03/27 17:34:19;;;;;;;;;;;13.00;99.90;;;;;;8381226;28;19924;-75
2024/03/27 17:38:20;;;;;;;;;;;12.80;99.90;;;;;;8411223;28;19924;-74
2024/03/27 17:42:21;;;;;;;;;;;12.70;99.90;;;;;;8367593;28;19920;-74
2024/03/27 17:46:22;;;;;;;;;;;12.50;99.90;;;;;;8385766;28;19939;-74
2024/03/27 17:50:23;;;;;;;;;;;12.30;99.90;;;;;;8383132;28;19923;-74
2024/03/27 17:54:24;;;;;;;;;;;12.10;99.90;;;;;;8387200;28;19927;-74
2024/03/27 17:58:24;;;;;;;;;;;12.00;99.90;;;;;;8380275;28;20011;-74
2024/03/27 18:02:25;;;;;;;;;;;11.90;99.90;;;;;;8378546;28;19921;-74
2024/03/27 18:06:26;;;;;;;;;;;11.80;99.90;;;;;;8371953;28;20020;-74
2024/03/27 18:10:27;;;;;;;;;;;11.70;99.90;;;;;;8345307;28;20019;-74
2024/03/27 18:14:28;;;;;;;;;;;11.50;99.90;;;;;;8376976;28;20330;-74
2024/03/27 18:18:35;;;;;;;;;;;11.40;99.90;;;;;;8361253;28;19924;-74
2024/03/27 18:22:36;;;;;;;;;;;11.30;99.90;;;;;;8372288;28;20458;-74
2024/03/27 18:26:37;;;;;;;;;;;11.30;99.90;;;;;;8393619;28;19925;-74
2024/03/27 18:30:38;;;;;;;;;;;11.20;99.90;;;;;;8355309;28;19920;-74
2024/03/27 18:34:39;;;;;;;;;;;11.10;99.90;;;;;;8375373;28;19924;-74
2024/03/27 18:38:39;;;;;;;;;;;11.00;99.90;;;;;;8359621;28;20269;-74
2024/03/27 18:42:40;;;;;;;;;;;11.00;99.90;;;;;;8375860;28;20018;-74
2024/03/27 18:46:41;;;;;;;;;;;10.90;99.90;;;;;;8355905;28;19928;-74
2024/03/27 18:50:42;;;;;;;;;;;10.80;99.90;;;;;;8362993;28;20433;-74
2024/03/27 18:54:42;;;;;;;;;;;10.80;99.90;;;;;;8366800;28;19924;-75
2024/03/27 18:58:43;;;;;;;;;;;10.70;99.90;;;;;;8380559;28;19928;-74
2024/03/27 19:02:44;;;;;;;;;;;10.70;99.90;;;;;;8377480;28;19935;-74
2024/03/27 19:06:45;;;;;;;;;;;10.60;99.90;;;;;;8346994;28;19965;-74
2024/03/27 19:10:46;;;;;;;;;;;10.60;99.90;;;;;;8373678;28;19946;-75
2024/03/27 19:14:48;;;;;;;;;;;10.50;99.90;;;;;;8354945;28;20422;-74
2024/03/27 19:18:49;;;;;;;;;;;10.50;99.90;;;;;;8344151;28;19925;-74
2024/03/27 19:22:49;;;;;;;;;;;10.40;99.90;;;;;;8361345;28;20007;-74
2024/03/27 19:26:50;;;;;;;;;;;10.30;99.90;;;;;;8365332;28;19921;-75
2024/03/27 19:30:51;;;;;;;;;;;10.30;99.90;;;;;;8389912;28;19978;-75
2024/03/27 19:34:52;;;;;;;;;;;10.20;99.90;;;;;;8395541;28;19924;-74
2024/03/27 19:38:54;;;;;;;;;;;10.20;99.90;;;;;;8375533;28;19936;-74
2024/03/27 19:42:55;;;;;;;;;;;10.30;99.90;;;;;;8358396;28;19930;-74
2024/03/27 19:46:57;;;;;;;;;;;10.20;99.90;;;;;;8371640;28;19925;-75
2024/03/27 19:50:58;;;;;;;;;;;10.20;99.90;;;;;;8356050;28;19973;-74
2024/03/27 19:54:59;;;;;;;;;;;10.20;99.90;;;;;;8369824;28;19960;-74
2024/03/27 20:04:04;;;;;;;;;;;10.10;99.90;;;;;;8378992;28;20378;-74
2024/03/27 20:08:05;;;;;;;;;;;10.10;99.90;;;;;;8378458;28;19921;-73
2024/03/27 20:12:06;;;;;;;;;;;10.00;99.90;;;;;;8387774;28;20394;-74
2024/03/27 20:16:07;;;;;;;;;;;10.00;99.90;;;;;;8388206;28;20398;-74
2024/03/27 20:20:08;;;;;;;;;;;9.90;99.90;;;;;;8386924;28;20551;-74
2024/03/27 20:24:09;;;;;;;;;;;9.90;99.90;;;;;;8389751;28;19927;-74
2024/03/27 20:28:10;;;;;;;;;;;9.90;99.90;;;;;;8386469;28;19993;-74
2024/03/27 20:32:12;;;;;;;;;;;9.80;99.90;;;;;;8377389;28;19973;-74
2024/03/27 20:36:13;;;;;;;;;;;9.80;99.90;;;;;;8368502;28;20131;-73
2024/03/27 20:40:13;;;;;;;;;;;9.70;99.90;;;;;;8394457;28;19967;-73
2024/03/27 20:44:14;;;;;;;;;;;9.70;99.90;;;;;;8406039;28;19928;-74
2024/03/27 20:48:15;;;;;;;;;;;9.60;99.90;;;;;;8373864;28;19924;-73
2024/03/27 20:52:16;;;;;;;;;;;9.60;99.90;;;;;;8389412;28;19931;-74
2024/03/27 20:56:17;;;;;;;;;;;9.60;99.90;;;;;;8381646;28;20360;-74
2024/03/27 21:00:18;;;;;;;;;;;9.50;99.90;;;;;;8390577;28;20356;-74
2024/03/27 21:04:19;;;;;;;;;;;9.40;99.90;;;;;;8391423;28;19928;-73
2024/03/27 21:08:20;;;;;;;;;;;9.40;99.90;;;;;;8378694;28;19942;-74
2024/03/27 21:12:31;;;;;;;;;;;9.30;99.90;;;;;;8391995;28;19920;-73
2024/03/27 21:16:32;;;;;;;;;;;9.30;99.90;;;;;;8381928;28;20407;-73
2024/03/27 21:20:35;;;;;;;;;;;9.20;99.90;;;;;;8391779;28;20343;-73
2024/03/27 21:24:36;;;;;;;;;;;9.20;99.90;;;;;;8391730;28;19951;-74
2024/03/27 21:28:37;;;;;;;;;;;9.10;99.90;;;;;;8394362;28;19924;-73
2024/03/27 21:32:38;;;;;;;;;;;9.10;99.90;;;;;;8382541;28;19939;-73
2024/03/27 21:36:39;;;;;;;;;;;9.10;99.90;;;;;;8365361;28;20268;-73
2024/03/27 21:40:40;;;;;;;;;;;9.00;99.90;;;;;;8380139;28;20279;-73
2024/03/27 21:44:40;;;;;;;;;;;9.00;99.90;;;;;;8374814;28;19963;-74
2024/03/27 21:48:41;;;;;;;;;;;9.00;99.90;;;;;;8380876;28;20024;-74
2024/03/27 21:52:42;;;;;;;;;;;8.90;99.90;;;;;;8386637;28;19928;-74
2024/03/27 21:56:43;;;;;;;;;;;8.90;99.90;;;;;;8368486;28;19971;-74
2024/03/27 22:00:44;;;;;;;;;;;8.90;99.90;;;;;;8390268;28;20016;-74
2024/03/27 22:04:44;;;;;;;;;;;8.80;99.90;;;;;;8363907;28;19920;-74
2024/03/27 22:08:45;;;;;;;;;;;8.80;99.90;;;;;;8374082;28;19924;-73
2024/03/27 22:12:47;;;;;;;;;;;8.80;99.90;;;;;;8396714;28;20367;-73
2024/03/27 22:16:47;;;;;;;;;;;8.80;99.90;;;;;;8369823;28;19920;-73
2024/03/27 22:20:48;;;;;;;;;;;8.70;99.90;;;;;;8382422;28;19993;-74
2024/03/27 22:24:49;;;;;;;;;;;8.70;99.90;;;;;;8357734;28;19920;-73
2024/03/27 22:28:50;;;;;;;;;;;8.70;99.90;;;;;;8389659;28;19928;-74
2024/03/27 22:32:51;;;;;;;;;;;8.70;99.90;;;;;;8377047;28;19920;-73
2024/03/27 22:36:52;;;;;;;;;;;8.70;99.90;;;;;;8386984;28;20181;-73
2024/03/27 22:40:53;;;;;;;;;;;8.60;99.90;;;;;;8368663;28;20023;-74
2024/03/27 22:44:54;;;;;;;;;;;8.60;99.90;;;;;;8386453;28;19928;-74
2024/03/27 22:48:55;;;;;;;;;;;8.50;99.90;;;;;;8381793;28;19928;-73
2024/03/27 22:53:33;;;;;;;;;;;8.50;99.90;;;;;;8379701;28;19936;-74
2024/03/27 22:57:34;;;;;;;;;;;8.50;99.90;;;;;;8409233;28;19932;-74
2024/03/27 23:01:35;;;;;;;;;;;8.40;99.90;;;;;;8380582;28;19931;-73
2024/03/27 23:05:36;;;;;;;;;;;8.40;99.90;;;;;;8370453;28;20860;-73
2024/03/27 23:09:37;;;;;;;;;;;8.40;99.90;;;;;;8372300;28;20328;-73
2024/03/27 23:13:38;;;;;;;;;;;8.40;99.90;;;;;;8364556;28;19930;-74
2024/03/27 23:17:39;;;;;;;;;;;8.40;99.90;;;;;;8390764;28;19935;-73
2024/03/27 23:21:39;;;;;;;;;;;8.40;99.90;;;;;;8367709;28;19928;-73
2024/03/27 23:25:40;;;;;;;;;;;8.40;99.90;;;;;;8378021;28;20018;-74
2024/03/27 23:29:41;;;;;;;;;;;8.40;99.90;;;;;;8393558;28;19928;-73
2024/03/27 23:33:42;;;;;;;;;;;8.30;99.90;;;;;;8386101;28;20359;-73
2024/03/27 23:37:43;;;;;;;;;;;8.30;99.90;;;;;;8385065;28;19926;-73
2024/03/27 23:41:45;;;;;;;;;;;8.20;99.90;;;;;;8377828;28;19919;-73
2024/03/27 23:45:56;;;;;;;;;;;8.20;99.90;;;;;;8388346;28;19920;-69
2024/03/27 23:49:56;;;;;;;;;;;8.20;99.90;;;;;;8368701;28;20310;-68
2024/03/27 23:53:57;;;;;;;;;;;8.20;99.90;;;;;;8383918;28;25009;-69
2024/03/27 23:57:58;;;;;;;;;;;8.20;99.90;;;;;;8373363;28;20014;-69
